• Join FlightAware (Why Join?)
  • Login
  • US Flag 
 
09:44PM EST


 

Airport Tracker/Info


-or-


 

Live Flight TrackerFlight Track Log ✈ SKW6377 ✈ 04-May-2013 ✈ KDEN - KCPR

Flight Track Log - Related Links

Times and Time Zones

All times are in EDT time to prevent confusion due to time zone crossing. See the SKW6377 flight status page for this flight to view local times or setup timezone preferences in your user account.

Time Position Orientation Groundspeed Altitude Reporting Facility
EDT Latitude Longitude Course Direction KTS MPH feet Rate Location/Type
01:31PM 39.9167 -104.7000 346° North 188 216 7,000  Level Denver TRACON
01:32PM 39.9833 -104.6833 11° North 260 299 8,700 1,920 Climbing Denver TRACON
01:33PM 40.0108 -104.6811 North 272 313 9,700 2,280 Climbing Denver Center
01:34PM 40.3285 -104.8206 346° North  Level FlightAware Approximate
01:34PM 40.0933 -104.6983 351° North 296 341 12,000  Level Denver Center
01:35PM 40.4481 -104.8604 346° North  Level FlightAware Approximate
01:35PM 40.1847 -104.7181 351° North 344 396 13,100  Level Denver Center
01:36PM 40.5681 -104.8980 348° North  Level FlightAware Approximate
01:36PM 40.2886 -104.7419 350° North 352 405 15,200  Level Denver Center
01:37PM 40.6882 -104.9349 346° North  Level FlightAware Approximate
01:37PM 40.3861 -104.7631 351° North 354 407 16,900  Level Denver Center
01:38PM 40.4933 -104.7894 349° North 363 418 18,100 1,200 Climbing Denver Center
01:39PM 40.5983 -104.8100 352° North 383 441 19,400 1,200 Climbing Denver Center
01:40PM 40.7028 -104.8372 349° North 385 443 20,700 1,200 Climbing Denver Center
01:41PM 40.8189 -104.8658 349° North 382 440 22,000 1,140 Climbing Denver Center
01:42PM 40.9247 -104.9181 340° North 401 461 23,100 1,020 Climbing Denver Center
01:43PM 41.0253 -104.9681 339° North 404 465 24,200 900 Climbing Denver Center
01:44PM 41.1458 -105.0272 340° North 413 475 25,000 720 Climbing Denver Center
01:45PM 41.2514 -105.0794 340° North 421 484 25,700 960 Climbing Denver Center
01:46PM 41.3750 -105.1428 339° North 425 489 27,000 900 Climbing Denver Center
01:47PM 41.4797 -105.1947 340° North 421 484 27,600 480 Climbing Denver Center
01:48PM 41.5858 -105.2489 339° North 425 489 28,000 180 Climbing Denver Center
01:49PM 41.7083 -105.3325 333° Northwest 438 504 28,000  Level Denver Center
01:50PM 41.8161 -105.4042 334° Northwest 448 516 28,000  Level Denver Center
01:51PM 41.9411 -105.4872 334° Northwest 447 514 28,000  Level Denver Center
01:52PM 42.0461 -105.5592 333° Northwest 443 510 28,000  Level Denver Center
01:53PM 42.1681 -105.6425 333° Northwest 441 507 28,000 -780 Level Denver Center
01:54PM 42.2750 -105.7147 333° Northwest 447 514 26,400 -1,740 Descending Denver Center
01:55PM 42.3825 -105.7886 333° Northwest 451 519 24,500 -2,100 Descending Denver Center
01:56PM 42.4986 -105.8667 334° Northwest 416 479 22,200 -2,100 Descending Denver Center
01:57PM 42.5964 -105.9339 333° Northwest 410 472 20,300 -2,040 Descending Denver Center
01:58PM 42.6936 -106.0275 325° Northwest 402 463 18,000 -2,040 Descending Denver Center
01:59PM 42.7444 -106.1381 302° West 367 422 16,100 -2,640 Descending Denver Center
02:00PM 42.7958 -106.2442 303° West 357 411 12,700 -2,640 Descending Denver Center
02:01PM 42.7983 -106.3728 272° West 312 359 10,700 -1,860 Descending Denver Center
02:02PM 42.7925 -106.4603 265° West 267 307 8,900 -1,800 Descending Denver Center